Time,TemperatureF,DewpointF,PressureIn,WindDirection,WindDirectionDegrees,WindSpeedMPH,WindSpeedGustMPH,Humidity,HourlyPrecipIn,Conditions,Clouds,dailyrainin,SoftwareType,DateUTC
2013-01-18 00:12:00,35.0,34.0,-100.00,ESE,104,1.0,2.0,97,0.00,,,0.00,,2013-01-18 06:12:00,
2013-01-18 00:22:00,35.0,34.0,-100.00,ESE,104,1.0,2.0,97,0.00,,,0.00,,2013-01-18 06:22:00,
2013-01-18 00:33:00,35.0,34.0,-100.00,ESE,104,1.0,2.0,97,0.00,,,0.00,,2013-01-18 06:33:00,
2013-01-18 00:43:00,35.0,34.0,-100.00,ESE,104,1.0,2.0,97,0.00,,,0.00,,2013-01-18 06:43:00,
2013-01-18 01:12:00,37.0,36.0,-100.00,WNW,284,2.0,6.0,97,0.00,,,0.00,,2013-01-18 07:12:00,
2013-01-18 01:22:00,37.0,36.0,-100.00,WNW,284,2.0,6.0,97,0.00,,,0.00,,2013-01-18 07:22:00,
2013-01-18 01:32:00,37.0,36.0,-100.00,WNW,284,2.0,6.0,97,0.00,,,0.00,,2013-01-18 07:32:00,
2013-01-18 01:42:00,37.0,36.0,-100.00,WNW,284,2.0,6.0,97,0.00,,,0.00,,2013-01-18 07:42:00,
2013-01-18 02:12:00,39.0,35.0,-100.00,NNE,16,3.0,7.0,85,0.00,,,0.00,,2013-01-18 08:12:00,
2013-01-18 02:22:00,39.0,35.0,-100.00,NNE,16,3.0,7.0,85,0.00,,,0.00,,2013-01-18 08:22:00,
2013-01-18 02:32:00,39.0,35.0,-100.00,NNE,16,3.0,7.0,85,0.00,,,0.00,,2013-01-18 08:32:00,
2013-01-18 02:42:00,39.0,35.0,-100.00,NNE,16,3.0,7.0,85,0.00,,,0.00,,2013-01-18 08:42:00,
2013-01-18 03:12:00,39.0,35.0,-100.00,NNE,26,3.0,10.0,87,0.00,,,0.00,,2013-01-18 09:12:00,
2013-01-18 03:22:00,39.0,35.0,-100.00,NNE,26,3.0,10.0,87,0.00,,,0.00,,2013-01-18 09:22:00,
2013-01-18 03:33:00,39.0,35.0,-100.00,NNE,26,3.0,10.0,87,0.00,,,0.00,,2013-01-18 09:33:00,
2013-01-18 03:42:00,39.0,35.0,-100.00,NNE,26,3.0,10.0,87,0.00,,,0.00,,2013-01-18 09:42:00,
2013-01-18 04:12:00,38.0,35.0,-100.00,North,349,2.0,8.0,88,0.00,,,0.00,,2013-01-18 10:12:00,
2013-01-18 04:22:00,38.0,35.0,-100.00,North,349,2.0,8.0,88,0.00,,,0.00,,2013-01-18 10:22:00,
2013-01-18 04:32:00,38.0,35.0,-100.00,North,349,2.0,8.0,88,0.00,,,0.00,,2013-01-18 10:32:00,
2013-01-18 04:42:00,38.0,35.0,-100.00,North,349,2.0,8.0,88,0.00,,,0.00,,2013-01-18 10:42:00,
2013-01-18 05:12:00,37.0,34.0,-100.00,NE,46,3.0,10.0,89,0.00,,,0.00,,2013-01-18 11:12:00,
2013-01-18 05:23:00,37.0,34.0,-100.00,NE,46,3.0,10.0,89,0.00,,,0.00,,2013-01-18 11:23:00,
2013-01-18 05:32:00,37.0,34.0,-100.00,NE,46,3.0,10.0,89,0.00,,,0.00,,2013-01-18 11:32:00,
2013-01-18 05:42:00,37.0,34.0,-100.00,NE,46,3.0,10.0,89,0.00,,,0.00,,2013-01-18 11:42:00,
2013-01-18 06:12:00,36.0,34.0,-100.00,NE,37,2.0,8.0,92,0.00,,,0.00,,2013-01-18 12:12:00,
2013-01-18 06:22:00,36.0,34.0,-100.00,NE,37,2.0,8.0,92,0.00,,,0.00,,2013-01-18 12:22:00,
2013-01-18 06:33:00,36.0,34.0,-100.00,NE,37,2.0,8.0,92,0.00,,,0.00,,2013-01-18 12:33:00,
2013-01-18 06:43:00,36.0,34.0,-100.00,NE,37,2.0,8.0,92,0.00,,,0.00,,2013-01-18 12:43:00,
2013-01-18 07:12:00,34.0,33.0,-100.00,NNE,16,2.0,6.0,96,0.00,,,0.00,,2013-01-18 13:12:00,
2013-01-18 07:23:00,34.0,33.0,-100.00,NNE,16,2.0,6.0,96,0.00,,,0.00,,2013-01-18 13:23:00,
2013-01-18 07:33:00,34.0,33.0,-100.00,NNE,16,2.0,6.0,96,0.00,,,0.00,,2013-01-18 13:33:00,
2013-01-18 07:43:00,34.0,33.0,-100.00,NNE,16,2.0,6.0,96,0.00,,,0.00,,2013-01-18 13:43:00,
2013-01-18 08:12:00,35.0,34.0,-100.00,NNE,27,1.0,6.0,97,0.00,,,0.00,,2013-01-18 14:12:00,
2013-01-18 08:23:00,35.0,34.0,-100.00,NNE,27,1.0,6.0,97,0.00,,,0.00,,2013-01-18 14:23:00,
2013-01-18 08:33:00,35.0,34.0,-100.00,NNE,27,1.0,6.0,97,0.00,,,0.00,,2013-01-18 14:33:00,
2013-01-18 08:42:00,35.0,34.0,-100.00,NNE,27,1.0,6.0,97,0.00,,,0.00,,2013-01-18 14:42:00,
2013-01-18 09:13:00,44.0,37.0,-100.00,NE,46,4.0,11.0,77,0.00,,,0.00,,2013-01-18 15:13:00,
2013-01-18 09:23:00,44.0,37.0,-100.00,NE,46,4.0,11.0,77,0.00,,,0.00,,2013-01-18 15:23:00,
2013-01-18 09:33:00,44.0,37.0,-100.00,NE,46,4.0,11.0,77,0.00,,,0.00,,2013-01-18 15:33:00,
2013-01-18 09:43:00,44.0,37.0,-100.00,NE,46,4.0,11.0,77,0.00,,,0.00,,2013-01-18 15:43:00,
2013-01-18 10:12:00,49.0,37.0,-100.00,NE,50,5.0,10.0,64,0.00,,,0.00,,2013-01-18 16:12:00,
2013-01-18 10:23:00,49.0,37.0,-100.00,NE,50,5.0,10.0,64,0.00,,,0.00,,2013-01-18 16:23:00,
2013-01-18 10:33:00,49.0,37.0,-100.00,NE,50,5.0,10.0,64,0.00,,,0.00,,2013-01-18 16:33:00,
2013-01-18 10:42:00,49.0,37.0,-100.00,NE,50,5.0,10.0,64,0.00,,,0.00,,2013-01-18 16:42:00,
2013-01-18 11:13:00,53.0,37.0,-100.00,NE,43,4.0,9.0,54,0.00,,,0.00,,2013-01-18 17:13:00,
2013-01-18 11:23:00,53.0,37.0,-100.00,NE,43,4.0,9.0,54,0.00,,,0.00,,2013-01-18 17:23:00,
2013-01-18 11:33:00,53.0,37.0,-100.00,NE,43,4.0,9.0,54,0.00,,,0.00,,2013-01-18 17:33:00,
2013-01-18 11:42:00,53.0,37.0,-100.00,NE,43,4.0,9.0,54,0.00,,,0.00,,2013-01-18 17:42:00,
2013-01-18 12:13:00,55.0,37.0,-100.00,NNE,12,4.0,9.0,50,0.00,,,0.00,,2013-01-18 18:13:00,
2013-01-18 12:23:00,55.0,37.0,-100.00,NNE,12,4.0,9.0,50,0.00,,,0.00,,2013-01-18 18:23:00,
2013-01-18 12:33:00,55.0,37.0,-100.00,NNE,12,4.0,9.0,50,0.00,,,0.00,,2013-01-18 18:33:00,
2013-01-18 12:43:00,55.0,37.0,-100.00,NNE,12,4.0,9.0,50,0.00,,,0.00,,2013-01-18 18:43:00,
2013-01-18 13:12:00,57.0,36.0,-100.00,NNE,22,4.0,8.0,46,0.00,,,0.00,,2013-01-18 19:12:00,
2013-01-18 13:23:00,57.0,36.0,-100.00,NNE,22,4.0,8.0,46,0.00,,,0.00,,2013-01-18 19:23:00,
2013-01-18 13:33:00,57.0,36.0,-100.00,NNE,22,4.0,8.0,46,0.00,,,0.00,,2013-01-18 19:33:00,
2013-01-18 13:43:00,57.0,36.0,-100.00,NNE,22,4.0,8.0,46,0.00,,,0.00,,2013-01-18 19:43:00,
2013-01-18 14:13:00,60.0,37.0,-100.00,NE,40,4.0,9.0,43,0.00,,,-99.99,,2013-01-18 20:13:00,
2013-01-18 14:23:00,60.0,37.0,-100.00,NE,40,4.0,9.0,43,0.00,,,-99.99,,2013-01-18 20:23:00,
2013-01-18 14:33:00,60.0,37.0,-100.00,NE,40,4.0,9.0,43,0.00,,,-99.99,,2013-01-18 20:33:00,
2013-01-18 14:42:00,60.0,37.0,-100.00,NE,40,4.0,9.0,43,0.00,,,-99.99,,2013-01-18 20:42:00,
2013-01-18 15:13:00,60.0,36.0,-100.00,North,8,4.0,11.0,40,0.00,,,0.00,,2013-01-18 21:13:00,
2013-01-18 15:23:00,60.0,36.0,-100.00,North,8,4.0,11.0,40,0.00,,,0.00,,2013-01-18 21:23:00,
2013-01-18 15:33:00,60.0,36.0,-100.00,North,8,4.0,11.0,40,0.00,,,0.00,,2013-01-18 21:33:00,
2013-01-18 15:42:00,60.0,36.0,-100.00,North,8,4.0,11.0,40,0.00,,,0.00,,2013-01-18 21:42:00,
2013-01-18 16:12:00,62.0,37.0,-100.00,North,1,3.0,7.0,39,0.00,,,0.00,,2013-01-18 22:12:00,
2013-01-18 16:23:00,62.0,37.0,-100.00,North,1,3.0,7.0,39,0.00,,,0.00,,2013-01-18 22:23:00,
2013-01-18 16:33:00,62.0,37.0,-100.00,North,1,3.0,7.0,39,0.00,,,0.00,,2013-01-18 22:33:00,
2013-01-18 16:42:00,62.0,37.0,-100.00,North,1,3.0,7.0,39,0.00,,,0.00,,2013-01-18 22:42:00,
2013-01-18 17:12:00,60.0,36.0,-100.00,ENE,73,2.0,5.0,41,0.00,,,0.00,,2013-01-18 23:12:00,
2013-01-18 17:22:00,60.0,36.0,-100.00,ENE,73,2.0,5.0,41,0.00,,,0.00,,2013-01-18 23:22:00,
2013-01-18 17:33:00,60.0,36.0,-100.00,ENE,73,2.0,5.0,41,0.00,,,0.00,,2013-01-18 23:33:00,
2013-01-18 17:43:00,60.0,36.0,-100.00,ENE,73,2.0,5.0,41,0.00,,,0.00,,2013-01-18 23:43:00,
2013-01-18 18:12:00,46.0,40.0,-100.00,NNW,327,1.0,3.0,78,0.00,,,0.00,,2013-01-19 00:12:00,
2013-01-18 18:22:00,46.0,40.0,-100.00,NNW,327,1.0,3.0,78,0.00,,,0.00,,2013-01-19 00:22:00,
2013-01-18 18:33:00,46.0,40.0,-100.00,NNW,327,1.0,3.0,78,0.00,,,0.00,,2013-01-19 00:33:00,
2013-01-18 18:43:00,46.0,40.0,-100.00,NNW,327,1.0,3.0,78,0.00,,,0.00,,2013-01-19 00:43:00,
2013-01-18 19:12:00,40.0,38.0,-100.00,NNE,13,0.0,0.0,94,0.00,,,0.00,,2013-01-19 01:12:00,
2013-01-18 19:22:00,40.0,38.0,-100.00,NNE,13,0.0,0.0,94,0.00,,,0.00,,2013-01-19 01:22:00,
2013-01-18 19:32:00,40.0,38.0,-100.00,NNE,13,0.0,0.0,94,0.00,,,0.00,,2013-01-19 01:32:00,
2013-01-18 19:42:00,40.0,38.0,-100.00,NNE,13,0.0,0.0,94,0.00,,,0.00,,2013-01-19 01:42:00,
2013-01-18 20:12:00,37.0,36.0,-100.00,North,6,0.0,0.0,96,0.00,,,0.00,,2013-01-19 02:12:00,
2013-01-18 20:22:00,37.0,36.0,-100.00,North,6,0.0,0.0,96,0.00,,,0.00,,2013-01-19 02:22:00,
2013-01-18 20:33:00,37.0,36.0,-100.00,North,6,0.0,0.0,96,0.00,,,0.00,,2013-01-19 02:33:00,
2013-01-18 20:42:00,37.0,36.0,-100.00,North,6,0.0,0.0,96,0.00,,,0.00,,2013-01-19 02:42:00,
2013-01-18 21:12:00,36.0,35.0,-100.00,NE,55,0.0,2.0,98,0.00,,,0.00,,2013-01-19 03:12:00,
2013-01-18 21:22:00,36.0,35.0,-100.00,NE,55,0.0,2.0,98,0.00,,,0.00,,2013-01-19 03:22:00,
2013-01-18 21:33:00,36.0,35.0,-100.00,NE,55,0.0,2.0,98,0.00,,,0.00,,2013-01-19 03:33:00,
2013-01-18 21:43:00,36.0,35.0,-100.00,NE,55,0.0,2.0,98,0.00,,,0.00,,2013-01-19 03:43:00,
2013-01-18 22:12:00,33.0,32.0,-100.00,NNE,26,0.0,0.0,98,0.00,,,0.00,,2013-01-19 04:12:00,
2013-01-18 22:22:00,33.0,32.0,-100.00,NNE,26,0.0,0.0,98,0.00,,,0.00,,2013-01-19 04:22:00,
2013-01-18 22:32:00,33.0,32.0,-100.00,NNE,26,0.0,0.0,98,0.00,,,0.00,,2013-01-19 04:32:00,
2013-01-18 22:42:00,33.0,32.0,-100.00,NNE,26,0.0,0.0,98,0.00,,,0.00,,2013-01-19 04:42:00,
2013-01-18 23:12:00,34.0,34.0,-100.00,NNE,12,0.0,0.0,98,0.00,,,0.00,,2013-01-19 05:12:00,
2013-01-18 23:23:00,34.0,34.0,-100.00,NNE,12,0.0,0.0,98,0.00,,,0.00,,2013-01-19 05:23:00,
2013-01-18 23:33:00,34.0,34.0,-100.00,NNE,12,0.0,0.0,98,0.00,,,0.00,,2013-01-19 05:33:00,
2013-01-18 23:42:00,34.0,34.0,-100.00,NNE,12,0.0,0.0,98,0.00,,,0.00,,2013-01-19 05:42:00,